Aeroporto :
LOGIN :

Iscrizione | Disclaimer

   EN    FR    IT 

 










Sommario :    VFR   VFR Marginale   IFR   IFR Intensivo   IFR Molto Intensivo
Visibilità : 
Base nubi : 
>= 8 km
>= 3000ft
5 / 8 km
1000 / 3000 ft
1500m / 5 km
500 / 1000 ft
800 / 1500m
200 / 500 ft
< 800m
< 200 ft
Simboli :   Temporali  Nebbia  Neve Forte  Precipitazioni Forti  Vento > 20 kt
SIGMETs :   Varie  Temporali  Ghiacco  Turbolenza  Onda orograficha  Ceneri Vulcaniche






- Altitudine del aeroporto : 1959 ft
- Codice IATA : HOQ


EDQM - Hof Plauen

ULTIMO METAR :
  • 171750Z 01008KT 0300 R26/1000N FG VV/// 03/03 Q1003

METARs OBSOLETI :
  • 171720Z 02008KT 0250 R26/0800N FG VV/// 03/03 Q1003
  • 171650Z 02009KT 0250 R26/0900N FG VV/// 03/03 Q1003
  • 171620Z 02010KT 0250 R26/0900N FG VV/// 03/03 Q1003
  • 171550Z 02010KT 0200 R26/0800N FG VV/// 03/02 Q1004
  • 171520Z 03009KT 0200 R26/0600N FG VV/// 03/02 Q1004

TAF TAF EDQM
Valido dal 17 a 18 ore il 18 a 03 ore UTC


171700Z 1718/1803 04008KT 0300 FG OVC001
TEMPO 1718/1803 0100 FG OVC000



MetMap, La meteo Aeronautica in un colpo d'occhio ! - Copyright ORBIFLY Dicembre 2007 - Disclaimer

ORBIFLY MET'MAP TEAM :

Programmazione e sviluppo : Alexandra Zaïnal
Concezione e sviluppo : Baudouin d'Aumeries
Co-Programmazione e sviluppo : Marc-Olivier Méhu
Supporto tecnico e logistico : Manuel Goepfert
Aiuto per la traduzione : Arnaldo La Scala

Contatto : metmap@orbifly.com




FONTI E CREDITI :

   NOAA